Terminal Aerodrome Forecast
Issued by NWS Louisville, KY

Home | Current Version | Previous Version | Text Only | Print | Product List | Glossary On
Versions: 1 2 3 4 5 6 7 8 9 10 11 12 13 14 15
039
FTUS43 KLMK 022329
TAFLEX
TAF
KLEX 022329Z 0300/0324 28006KT P6SM SCT020 BKN100
      TEMPO 0300/0304 BKN020
     FM030400 33004KT 5SM BR BKN015
      TEMPO 0310/0314 2SM BR BKN007
     FM031600 31006KT 6SM BR BKN025=

USA.gov is the U.S. government's official web portal to all federal, state and local government web resources and services.